Arcadia, Oklahoma
Current Conditions -  °F | °C
As of 6:53 PM on Monday 22 Dec 2014 (Local Time) from KGOK Reporting Station
Clear Clear  
Wind Chill: 47°   Ceiling: Unl
Heat Index: 47°   Visibility: 10mi
Dew Point: 36°   Wind: 3mph
Humidity: 66%   Direction: 300°WNW
Pressure: 29.66"   Gusts: NA
Location:  35.67°N, 97.33°W
Report Text: KGOK 230053Z AUTO 30003KT 10SM CLR 08/02 A2966 RMK AO2 SLP045 T00830022
Loading
Personal Weather Stations






























Interactive Weather Map New forecast layout! Learn more

10-Day Weather Forecast

Advertisements
Track Severe Weather on mobile